الصفحة الرئيسية
METAR-TAF:

METAR-TAF

مطار :

Laoag, الفلبين

دائرة عرض: 18-11N, خط طول: 120-32E, ارتفاع: 4 متر

مراقبة الطقس الحالي

تاريخ ووقت الإصدار 1ساعة و 9 دقيقة قبل الساعة 02:00UTC
ريح 16 عقدة من الشمال/الشمال الشرقي, الاتجاه يتراوح بين الشمال و الشمال الشرقي
درجة الحرارة 30°درجة مئوية
الرطوبة 70%
ضغط 1013 hPa
الرؤية 10 كم أو أكثر
غيوم متفرقة على ارتفاع 1800 قدم
غيوم مفككة على ارتفاع 28000 قدم

METAR: RPLI 270200Z 02016KT 350V050 9999 SCT018 BKN280 30/24 Q1013 NOSIG RMK A2991

زمن: 11:09 (03:09 UTC)

توقعات

تاريخ ووقت الإصدار 4ساعات و 9 دقيقة قبل الساعة 23:00UTC
التوقعات صالحة من27 الساعة 00 UTC إلى 27 الساعة 24 UTC
ريح 15 عقدة من الشمال/الشمال الشرقي
الرؤية 10 كم أو أكثر
غيوم قليلة على ارتفاع 1800 قدم
غيوم مفككة على ارتفاع 29000 قدم
مؤقت
من 27 الساعة 06 UTC إلى 27 الساعة 12 UTC
ريح 15 عقدة من الشمال/الشمال الشرقي تتزايد حتى 25 عقدة
غيوم قليلة على ارتفاع 1800 قدم
غيوم متفرقة على ارتفاع 9000 قدم
غيوم مفككة على ارتفاع 28000 قدم

TAF: RPLI 262300Z 2700/2724 03015KT 9999 FEW018 BKN290 TEMPO 2706/2712 02015G25KT FEW018 SCT090 BKN280

أرصاد الطقس والتوقعات من أكثر من 4000 مطار (تقارير الطقس للمطار METAR والتنبؤ بالطقس بالمطارTAF).

المحطات المتاحة هي النقط الصفراء والحمراء على الخريطة.

حرك المؤشر فوق النقطة لمعرفة اسم المحطة.

ثم انقر لمعرفة أرصاد وتوقعات الطقس.

لتغيير الخارطة: اضغط على الأزرار الخضراء مع رمز الصليب الأسود للتكبير. على الزر الأخضر مع شرطة للتصغير، أو على الأسهم الخضراء للخرائط المجاورة.


METAR-TAF: